Time;durP1;ratioP1;P1;durP2;ratioP2;P2;SDS_P1;SDS_P2;PMS_P1;PMS_P2;Temp;Humidity;BMP_temperature;BMP_pressure;BME280_temperature;BME280_humidity;BME280_pressure;Samples;Min_cycle;Max_cycle;Signal;HPM_P1;HPM_P2
2024/04/20 00:02:48;;;;;;;2.3;1.2;;;;;;;6.88;73.03;97553.333333333;;;;
2024/04/20 00:12:48;;;;;;;1.8;1;;;;;;;6.9;73.41;97551.666666667;;;;
2024/04/20 00:23:48;;;;;;;1.8;1;;;;;;;6.87;73.45;97551.666666667;;;;
2024/04/20 00:34:48;;;;;;;1.8;1;;;;;;;6.86;73.36;97556.666666667;;;;
2024/04/20 00:44:48;;;;;;;0.9;0.6;;;;;;;6.9;73.28;97555;;;;
2024/04/20 00:55:48;;;;;;;0.9;0.6;;;;;;;6.88;73.44;97556.666666667;;;;
2024/04/20 01:05:48;;;;;;;0.9;0.6;;;;;;;6.88;73.81;97551.666666667;;;;
2024/04/20 01:15:48;;;;;;;1.2;0.7;;;;;;;6.89;73.87;97553.333333333;;;;
2024/04/20 01:26:48;;;;;;;1.2;0.7;;;;;;;6.9;73.9;97565;;;;
2024/04/20 01:36:48;;;;;;;1.5;0.5;;;;;;;6.78;73.93;97568.333333333;;;;
2024/04/20 01:46:48;;;;;;;1.5;0.5;;;;;;;6.78;75.32;97570;;;;
2024/04/20 01:56:48;;;;;;;1.5;0.5;;;;;;;6.79;75.26;97570;;;;
2024/04/20 02:07:48;;;;;;;1.1;0.6;;;;;;;6.78;75.62;97573.333333333;;;;
2024/04/20 02:18:48;;;;;;;1.1;0.6;;;;;;;6.77;76.27;97578.333333333;;;;
2024/04/20 02:29:48;;;;;;;1.1;0.6;;;;;;;6.65;76.06;97580;;;;
2024/04/20 02:39:48;;;;;;;1.2;0.5;;;;;;;6.59;77.92;97583.333333333;;;;
2024/04/20 02:50:48;;;;;;;1.2;0.5;;;;;;;6.66;77.6;97575;;;;
2024/04/20 03:00:48;;;;;;;1.2;0.5;;;;;;;6.62;77.98;97575;;;;
2024/04/20 03:11:48;;;;;;;1;0.5;;;;;;;6.45;80.33;97578.333333333;;;;
2024/04/20 03:22:48;;;;;;;1;0.5;;;;;;;6.32;81.4;97580;;;;
2024/04/20 03:33:48;;;;;;;1;0.5;;;;;;;6.18;82.69;97590;;;;
2024/04/20 03:44:48;;;;;;;0.7;0.4;;;;;;;6.26;82.29;97600;;;;
2024/04/20 03:54:48;;;;;;;0.7;0.4;;;;;;;6.09;84.16;97610;;;;
2024/04/20 04:05:48;;;;;;;0.7;0.4;;;;;;;6.06;84.11;97613.333333333;;;;
2024/04/20 04:15:48;;;;;;;0.6;0.4;;;;;;;6.18;84.29;97621.666666667;;;;
2024/04/20 04:26:48;;;;;;;0.6;0.4;;;;;;;6.28;84.59;97630;;;;
2024/04/20 04:37:48;;;;;;;1;0.5;;;;;;;6.41;84.51;97631.666666667;;;;
2024/04/20 04:47:48;;;;;;;1;0.5;;;;;;;6.67;84.03;97638.333333333;;;;
2024/04/20 04:58:48;;;;;;;1;0.5;;;;;;;6.97;83.52;97651.666666667;;;;
2024/04/20 05:08:48;;;;;;;1;0.5;;;;;;;7.23;82.89;97656.666666667;;;;
2024/04/20 05:19:48;;;;;;;1;0.5;;;;;;;7.22;83.68;97665;;;;
2024/04/20 05:29:48;;;;;;;1;0.5;;;;;;;7.8;83.23;97670;;;;
2024/04/20 05:39:48;;;;;;;1;0.5;;;;;;;8;82.29;97676.666666667;;;;
2024/04/20 05:50:48;;;;;;;1;0.5;;;;;;;8.63;79.24;97688.333333333;;;;
2024/04/20 06:00:48;;;;;;;1;0.5;;;;;;;9;78.19;97691.666666667;;;;
2024/04/20 06:11:48;;;;;;;1.2;0.4;;;;;;;9.31;74.11;97696.666666667;;;;
2024/04/20 06:21:48;;;;;;;1.2;0.4;;;;;;;9.4;72.76;97705;;;;
2024/04/20 06:31:48;;;;;;;1.2;0.4;;;;;;;9.84;70.74;97713.333333333;;;;
2024/04/20 06:42:48;;;;;;;1.5;0.8;;;;;;;10.14;70.62;97723.333333333;;;;
2024/04/20 06:52:48;;;;;;;1.5;0.8;;;;;;;10.06;70.5;97735;;;;
2024/04/20 07:03:48;;;;;;;1.5;0.8;;;;;;;10.43;69.18;97748.333333333;;;;
2024/04/20 07:14:48;;;;;;;1.1;0.7;;;;;;;10.31;70.62;97756.666666667;;;;
2024/04/20 07:24:48;;;;;;;1.1;0.7;;;;;;;10.43;72.13;97765;;;;
2024/04/20 07:34:48;;;;;;;1.1;0.7;;;;;;;9.96;73.39;97773.333333333;;;;
2024/04/20 07:45:49;;;;;;;4.1;1.4;;;;;;;10.52;74.11;97785;;;;
2024/04/20 07:55:48;;;;;;;4.1;1.4;;;;;;;10.87;71.85;97786.666666667;;;;
2024/04/20 08:05:48;;;;;;;2.1;1;;;;;;;11.1;71.46;97793.333333333;;;;
2024/04/20 08:15:50;;;;;;;2.1;1;;;;;;;11.14;69.36;97798.333333333;;;;
2024/04/20 08:26:48;;;;;;;2.1;1;;;;;;;12.02;69.93;97798.333333333;;;;
2024/04/20 08:36:48;;;;;;;2.5;1;;;;;;;12.12;62;97808.333333333;;;;
2024/04/20 08:47:48;;;;;;;2.5;1;;;;;;;11.96;63.96;97816.666666667;;;;
2024/04/20 08:57:48;;;;;;;2.5;1;;;;;;;12.88;66.7;97825;;;;
2024/04/20 09:08:48;;;;;;;2.1;1.2;;;;;;;13.36;63.23;97831.666666667;;;;
2024/04/20 09:19:49;;;;;;;2.1;1.2;;;;;;;12.44;64.31;97845;;;;
2024/04/20 09:30:50;;;;;;;2.1;1.2;;;;;;;11.98;62.31;97851.666666667;;;;
2024/04/20 09:41:49;;;;;;;2.7;1.5;;;;;;;11.97;66.01;97863.333333333;;;;
2024/04/20 09:51:48;;;;;;;2.7;1.5;;;;;;;12.15;65.19;97868.333333333;;;;
2024/04/20 10:01:49;;;;;;;2.7;1.5;;;;;;;11.74;63.09;97870;;;;
2024/04/20 10:12:49;;;;;;;2.8;1.4;;;;;;;11.89;62.23;97870;;;;
2024/04/20 10:23:48;;;;;;;2.8;1.4;;;;;;;12.09;61.35;97875;;;;
2024/04/20 10:33:48;;;;;;;2.8;1.4;;;;;;;13.67;62.34;97876.666666667;;;;
2024/04/20 10:44:48;;;;;;;2.3;1.1;;;;;;;14.07;58.87;97883.333333333;;;;
2024/04/20 10:55:48;;;;;;;2.3;1.1;;;;;;;13.02;56.51;97898.333333333;;;;
2024/04/20 11:05:49;;;;;;;2.5;1.3;;;;;;;11.45;62.81;97918.333333333;;;;
2024/04/20 11:16:49;;;;;;;2.5;1.3;;;;;;;9.98;70.13;97948.333333333;;;;
2024/04/20 11:27:49;;;;;;;2.5;1.3;;;;;;;9.93;72.65;97968.333333333;;;;
2024/04/20 11:38:49;;;;;;;2.8;1.3;;;;;;;10.21;73.23;97966.666666667;;;;
2024/04/20 11:49:50;;;;;;;2.8;1.3;;;;;;;10.7;72.4;97973.333333333;;;;
2024/04/20 11:59:49;;;;;;;2.8;1.3;;;;;;;10.84;73.23;97986.666666667;;;;
2024/04/20 12:10:49;;;;;;;3.5;1.5;;;;;;;11.31;70.55;97993.333333333;;;;
2024/04/20 12:20:49;;;;;;;3.5;1.5;;;;;;;11.57;63.24;97996.666666667;;;;
2024/04/20 12:31:48;;;;;;;3.5;1.5;;;;;;;11.31;63.58;98011.666666667;;;;
2024/04/20 12:41:49;;;;;;;2.1;1;;;;;;;11.18;64.5;98016.666666667;;;;
2024/04/20 12:51:49;;;;;;;2.1;1;;;;;;;11.12;65.25;98025;;;;
2024/04/20 13:02:49;;;;;;;2.1;1;;;;;;;10.2;70.94;98040;;;;
2024/04/20 13:13:49;;;;;;;3.9;1.7;;;;;;;10.64;68.36;98046.666666667;;;;
2024/04/20 13:23:49;;;;;;;3.9;1.7;;;;;;;11.35;65.58;98055;;;;
2024/04/20 13:33:49;;;;;;;3.9;1.7;;;;;;;11.8;63.11;98056.666666667;;;;
2024/04/20 13:43:49;;;;;;;2.6;1.3;;;;;;;11.98;63.01;98056.666666667;;;;
2024/04/20 13:53:49;;;;;;;2.6;1.3;;;;;;;11.86;66.27;98070;;;;
2024/04/20 14:03:49;;;;;;;2.6;1.3;;;;;;;11.66;63.96;98070;;;;
2024/04/20 14:13:49;;;;;;;3.5;1.7;;;;;;;12.12;63.38;98061.666666667;;;;
2024/04/20 14:24:49;;;;;;;3.5;1.7;;;;;;;12;62.69;98063.333333333;;;;
2024/04/20 14:35:49;;;;;;;3.8;2.5;;;;;;;11.47;65.31;98078.333333333;;;;
2024/04/20 14:46:49;;;;;;;3.8;2.5;;;;;;;12.67;61.14;98081.666666667;;;;
2024/04/20 14:57:49;;;;;;;3.8;2.5;;;;;;;12.57;61.94;98080;;;;
2024/04/20 15:07:49;;;;;;;4;2.6;;;;;;;13.6;58.87;98086.666666667;;;;
2024/04/20 15:18:49;;;;;;;4;2.6;;;;;;;12.99;57.63;98098.333333333;;;;
2024/04/20 15:29:49;;;;;;;4;2.6;;;;;;;11.68;60.94;98108.333333333;;;;
2024/04/20 15:40:49;;;;;;;3.5;1.5;;;;;;;10.91;64.02;98111.666666667;;;;
2024/04/20 15:50:49;;;;;;;3.5;1.5;;;;;;;10.95;65.09;98118.333333333;;;;
2024/04/20 16:01:49;;;;;;;3.5;1.5;;;;;;;10.9;66.74;98120;;;;
2024/04/20 16:11:49;;;;;;;4.6;2.3;;;;;;;10.25;69.23;98131.666666667;;;;
2024/04/20 16:22:49;;;;;;;4.6;2.3;;;;;;;9.88;71.39;98143.333333333;;;;
2024/04/20 16:33:49;;;;;;;4.6;2.3;;;;;;;9.76;70.45;98153.333333333;;;;
2024/04/20 16:44:49;;;;;;;6.9;3.8;;;;;;;9.79;70.04;98161.666666667;;;;
2024/04/20 16:54:49;;;;;;;6.9;3.8;;;;;;;9.86;69.51;98176.666666667;;;;
2024/04/20 17:05:49;;;;;;;5.5;3.5;;;;;;;9.63;70.22;98188.333333333;;;;
2024/04/20 17:15:49;;;;;;;5.5;3.5;;;;;;;9.32;72.01;98198.333333333;;;;
2024/04/20 17:25:49;;;;;;;5.5;3.5;;;;;;;9;73.62;98203.333333333;;;;
2024/04/20 17:35:49;;;;;;;6.2;2.9;;;;;;;8.76;73.88;98220;;;;
2024/04/20 17:45:49;;;;;;;6.2;2.9;;;;;;;8.34;78.14;98238.333333333;;;;
2024/04/20 17:55:49;;;;;;;6.2;2.9;;;;;;;8.31;77.65;98251.666666667;;;;
2024/04/20 18:06:49;;;;;;;9;4.1;;;;;;;8.09;78.85;98268.333333333;;;;
2024/04/20 18:16:49;;;;;;;9;4.1;;;;;;;7.87;79.42;98288.333333333;;;;
2024/04/20 18:27:49;;;;;;;9;4.1;;;;;;;7.57;80.14;98305;;;;
2024/04/20 18:38:51;;;;;;;8;4.1;;;;;;;7.37;81.99;98323.333333333;;;;
2024/04/20 18:49:49;;;;;;;8;4.1;;;;;;;7.3;83.07;98341.666666667;;;;
2024/04/20 18:59:49;;;;;;;8;4.1;;;;;;;7.38;83.06;98356.666666667;;;;
2024/04/20 19:09:49;;;;;;;9.4;5.2;;;;;;;7.4;83.16;98370;;;;
2024/04/20 19:19:50;;;;;;;9.4;5.2;;;;;;;7.46;83.14;98375;;;;
2024/04/20 19:30:49;;;;;;;9.4;5.2;;;;;;;7.46;82.91;98380;;;;
2024/04/20 19:41:49;;;;;;;6.5;3.7;;;;;;;7.22;83.57;98388.333333333;;;;
2024/04/20 19:51:49;;;;;;;6.5;3.7;;;;;;;7.02;83.42;98398.333333333;;;;
2024/04/20 20:02:49;;;;;;;6.5;3.7;;;;;;;6.95;83.48;98405;;;;
2024/04/20 20:12:49;;;;;;;6.3;3.5;;;;;;;6.69;82.79;98413.333333333;;;;
2024/04/20 20:22:49;;;;;;;6.3;3.5;;;;;;;6.46;82.8;98423.333333333;;;;
2024/04/20 20:33:49;;;;;;;6.3;3.5;;;;;;;6.33;82.29;98441.666666667;;;;
2024/04/20 20:43:49;;;;;;;5.3;2.4;;;;;;;6.36;82.31;98446.666666667;;;;
2024/04/20 20:54:49;;;;;;;5.3;2.4;;;;;;;6.24;82.44;98448.333333333;;;;
2024/04/20 21:04:49;;;;;;;5.5;2.5;;;;;;;6.21;82.91;98456.666666667;;;;
2024/04/20 21:15:49;;;;;;;5.5;2.5;;;;;;;6.12;83.38;98456.666666667;;;;
2024/04/20 21:26:49;;;;;;;5.5;2.5;;;;;;;6.02;83.92;98466.666666667;;;;
2024/04/20 21:36:49;;;;;;;5.6;3;;;;;;;5.98;84.4;98480;;;;
2024/04/20 21:46:49;;;;;;;5.6;3;;;;;;;5.89;84.58;98480;;;;
2024/04/20 21:56:49;;;;;;;5.6;3;;;;;;;5.78;84.43;98488.333333333;;;;
2024/04/20 22:07:49;;;;;;;8.1;4.1;;;;;;;5.67;84.7;98491.666666667;;;;
2024/04/20 22:18:49;;;;;;;8.1;4.1;;;;;;;5.74;84.98;98498.333333333;;;;
2024/04/20 22:29:49;;;;;;;8.1;4.1;;;;;;;5.68;85.25;98501.666666667;;;;
2024/04/20 22:39:49;;;;;;;5;2.2;;;;;;;5.6;85.17;98505;;;;
2024/04/20 22:50:49;;;;;;;5;2.2;;;;;;;5.22;83.84;98506.666666667;;;;
2024/04/20 23:00:49;;;;;;;5;2.2;;;;;;;5.19;84.77;98516.666666667;;;;
2024/04/20 23:10:49;;;;;;;5.1;2.5;;;;;;;5.31;84.29;98518.333333333;;;;
2024/04/20 23:20:49;;;;;;;5.1;2.5;;;;;;;5.32;84.94;98523.333333333;;;;
2024/04/20 23:31:49;;;;;;;5.1;2.5;;;;;;;5.06;83.58;98528.333333333;;;;
2024/04/20 23:41:49;;;;;;;3.1;1.6;;;;;;;4.93;84.19;98526.666666667;;;;
2024/04/20 23:51:49;;;;;;;3.1;1.6;;;;;;;4.81;85.92;98528.333333333;;;;
